createdAt,value
2023-01-30T00:03:35.371Z,-2.08
2023-01-30T00:09:05.661Z,-2.14
2023-01-30T00:14:34.785Z,-2.09
2023-01-30T00:20:04.256Z,-2.09
2023-01-30T00:25:34.634Z,-2.05
2023-01-30T00:31:03.895Z,-2.11
2023-01-30T00:36:33.255Z,-2.24
2023-01-30T00:42:20.995Z,-2.25
2023-01-30T00:47:50.531Z,-2.26
2023-01-30T00:53:19.117Z,-2.20
2023-01-30T00:58:49.297Z,-2.17
2023-01-30T01:04:18.032Z,-2.19
2023-01-30T05:13:05.093Z,-5.15
2023-01-30T05:18:35.146Z,-4.98
2023-01-30T05:24:03.391Z,-4.86
2023-01-30T05:29:33.877Z,-4.75
2023-01-30T05:34:56.888Z,-4.68
2023-01-30T05:40:25.768Z,-4.04
2023-01-30T05:45:55.436Z,-2.83
2023-01-30T05:51:25.345Z,-1.65
2023-01-30T05:56:54.841Z,-0.66
2023-01-30T06:02:20.699Z,-0.08
2023-01-30T06:07:43.721Z,0.77
2023-01-30T06:13:12.298Z,1.40
2023-01-30T06:18:37.327Z,2.21
2023-01-30T06:24:05.241Z,2.99
2023-01-30T06:29:28.357Z,3.47
2023-01-30T06:34:59.244Z,4.15
2023-01-30T06:40:22.956Z,4.59
2023-01-30T06:45:51.309Z,5.09
2023-01-30T06:51:21.954Z,5.50
2023-01-30T06:56:50.475Z,5.60
2023-01-30T07:02:15.241Z,5.85
2023-01-30T07:07:45.922Z,6.09
2023-01-30T07:13:15.029Z,6.76
2023-01-30T07:18:43.375Z,6.46
2023-01-30T07:24:14.148Z,7.05
2023-01-30T07:29:42.839Z,7.06
2023-01-30T07:35:11.802Z,7.84
2023-01-30T07:40:42.084Z,8.33
2023-01-30T07:46:10.495Z,8.77
2023-01-30T07:51:40.169Z,9.14
2023-01-30T07:57:10.810Z,9.25
2023-01-30T08:02:39.974Z,9.27
2023-01-30T08:08:08.654Z,9.61
2023-01-30T08:13:39.172Z,9.83
2023-01-30T08:19:08.556Z,9.74
2023-01-30T08:24:37.115Z,9.95
2023-01-30T08:30:08.484Z,10.70
2023-01-30T08:35:37.490Z,10.73
2023-01-30T08:41:08.308Z,10.50
2023-01-30T08:46:39.284Z,10.64
2023-01-30T08:52:09.013Z,10.92
2023-01-30T08:57:37.772Z,11.18
2023-01-30T09:03:07.756Z,11.21
2023-01-30T09:08:36.929Z,11.47
2023-01-30T09:14:05.396Z,11.01
2023-01-30T09:19:37.292Z,11.05
2023-01-30T09:25:08.221Z,11.43
2023-01-30T09:30:37.869Z,11.40
2023-01-30T09:36:09.106Z,11.13
2023-01-30T09:41:53.296Z,10.92
2023-01-30T09:47:31.697Z,10.43
2023-01-30T09:53:13.938Z,10.43
2023-01-30T09:58:48.880Z,10.34
2023-01-30T10:04:27.418Z,9.69
2023-01-30T14:20:07.794Z,1.06
2023-01-30T14:25:36.131Z,0.94
2023-01-30T14:31:01.607Z,1.01
2023-01-30T14:36:38.488Z,0.82
2023-01-30T14:42:20.037Z,0.49
2023-01-30T14:47:50.984Z,0.56
2023-01-30T14:53:22.978Z,0.40
2023-01-30T14:58:52.999Z,0.51
2023-01-30T15:04:21.191Z,0.35
2023-01-30T15:09:54.272Z,0.29
2023-01-30T15:15:26.213Z,0.34
2023-01-30T15:21:12.856Z,0.42
2023-01-30T15:26:53.309Z,0.46
2023-01-30T15:32:23.241Z,0.39
2023-01-30T15:37:51.080Z,0.33
2023-01-30T15:43:42.525Z,0.19
2023-01-30T15:49:41.229Z,-0.06
2023-01-30T15:55:18.002Z,-0.48
2023-01-30T16:00:51.185Z,-0.76
2023-01-30T16:06:29.422Z,-0.86
2023-01-30T16:11:58.437Z,-0.93
2023-01-30T16:17:32.357Z,-0.88
2023-01-30T16:23:01.279Z,-0.95
2023-01-30T16:28:32.229Z,-0.96
2023-01-30T16:34:02.798Z,-1.07
2023-01-30T16:39:33.080Z,-1.12
2023-01-30T16:45:43.201Z,-1.28
2023-01-30T16:51:26.878Z,-1.22
2023-01-30T16:56:59.088Z,-1.16
2023-01-30T17:02:35.193Z,-1.20
2023-01-30T17:08:05.964Z,-1.64
2023-01-30T17:13:37.689Z,-1.52
2023-01-30T17:19:03.247Z,-1.38
2023-01-30T17:24:33.989Z,-1.46
2023-01-30T17:30:04.021Z,-1.41
2023-01-30T17:35:33.332Z,-1.19
2023-01-30T17:41:04.129Z,-1.11
2023-01-30T17:46:36.858Z,-1.15
2023-01-30T17:52:05.242Z,-1.33
2023-01-30T17:57:35.527Z,-1.31
2023-01-30T18:03:04.252Z,-1.20
2023-01-30T18:08:33.384Z,-1.24
2023-01-30T18:14:05.782Z,-1.18
2023-01-30T18:19:35.510Z,-0.98
2023-01-30T18:25:04.639Z,-0.99
2023-01-30T18:30:34.650Z,-1.09
2023-01-30T18:36:06.110Z,-0.88
2023-01-30T18:41:35.740Z,-1.01
2023-01-30T18:47:05.845Z,-1.09
2023-01-30T18:52:34.493Z,-1.05
2023-01-30T18:58:03.518Z,-1.16
2023-01-30T19:03:33.991Z,-1.22
2023-01-30T22:59:43.485Z,-2.02
2023-01-30T23:05:10.024Z,-1.98
2023-01-30T23:10:34.622Z,-1.89
2023-01-30T23:16:02.479Z,-1.93
2023-01-30T23:21:28.565Z,-1.91
2023-01-30T23:26:53.242Z,-1.89
2023-01-30T23:32:23.624Z,-1.82
2023-01-30T23:38:08.940Z,-1.81
2023-01-30T23:43:34.137Z,-1.81
2023-01-30T23:49:06.869Z,-1.64
2023-01-30T23:54:31.418Z,-1.70
2023-01-30T23:59:53.587Z,-1.58
